sensor_id;sensor_type;location;lat;lon;timestamp;temperature;humidity
53053;DHT22;38934;52.690;6.184;2023-05-19T00:01:35;7.80;99.90
53053;DHT22;38934;52.690;6.184;2023-05-19T00:04:02;7.70;99.90
53053;DHT22;38934;52.690;6.184;2023-05-19T00:06:31;7.70;99.90
53053;DHT22;38934;52.690;6.184;2023-05-19T00:08:59;7.70;99.90
53053;DHT22;38934;52.690;6.184;2023-05-19T00:11:26;7.70;99.90
53053;DHT22;38934;52.690;6.184;2023-05-19T00:13:57;7.70;99.90
53053;DHT22;38934;52.690;6.184;2023-05-19T00:16:24;7.70;99.90
53053;DHT22;38934;52.690;6.184;2023-05-19T00:18:50;7.70;99.90
53053;DHT22;38934;52.690;6.184;2023-05-19T00:21:16;7.60;99.90
53053;DHT22;38934;52.690;6.184;2023-05-19T00:23:42;7.90;99.90
53053;DHT22;38934;52.690;6.184;2023-05-19T00:26:10;7.60;99.90
53053;DHT22;38934;52.690;6.184;2023-05-19T00:28:35;7.60;99.90
53053;DHT22;38934;52.690;6.184;2023-05-19T00:31:03;7.60;99.90
53053;DHT22;38934;52.690;6.184;2023-05-19T00:33:29;7.60;99.90
53053;DHT22;38934;52.690;6.184;2023-05-19T00:35:55;7.60;99.90
53053;DHT22;38934;52.690;6.184;2023-05-19T00:38:21;7.60;99.90
53053;DHT22;38934;52.690;6.184;2023-05-19T00:40:46;7.50;99.90
53053;DHT22;38934;52.690;6.184;2023-05-19T00:43:12;7.50;99.90
53053;DHT22;38934;52.690;6.184;2023-05-19T00:45:38;7.50;99.90
53053;DHT22;38934;52.690;6.184;2023-05-19T00:48:04;7.50;99.90
53053;DHT22;38934;52.690;6.184;2023-05-19T00:50:30;7.50;99.90
53053;DHT22;38934;52.690;6.184;2023-05-19T00:52:56;7.50;99.90
53053;DHT22;38934;52.690;6.184;2023-05-19T00:55:25;7.40;99.90
53053;DHT22;38934;52.690;6.184;2023-05-19T00:57:54;7.40;99.90
53053;DHT22;38934;52.690;6.184;2023-05-19T01:00:20;7.50;99.90
53053;DHT22;38934;52.690;6.184;2023-05-19T01:02:46;7.40;99.90
53053;DHT22;38934;52.690;6.184;2023-05-19T01:05:12;7.40;99.90
53053;DHT22;38934;52.690;6.184;2023-05-19T01:07:39;7.40;99.90
53053;DHT22;38934;52.690;6.184;2023-05-19T01:10:06;7.30;99.90
53053;DHT22;38934;52.690;6.184;2023-05-19T01:12:33;7.30;99.90
53053;DHT22;38934;52.690;6.184;2023-05-19T01:14:59;7.30;99.90
53053;DHT22;38934;52.690;6.184;2023-05-19T01:20:33;7.30;99.90
53053;DHT22;38934;52.690;6.184;2023-05-19T01:29:40;7.20;99.90
53053;DHT22;38934;52.690;6.184;2023-05-19T01:32:08;7.10;99.90
53053;DHT22;38934;52.690;6.184;2023-05-19T01:34:40;7.20;99.90
53053;DHT22;38934;52.690;6.184;2023-05-19T01:37:06;7.20;99.90
53053;DHT22;38934;52.690;6.184;2023-05-19T01:39:34;7.10;99.90
53053;DHT22;38934;52.690;6.184;2023-05-19T01:42:00;7.10;99.90
53053;DHT22;38934;52.690;6.184;2023-05-19T01:44:27;7.10;99.90
53053;DHT22;38934;52.690;6.184;2023-05-19T01:46:53;7.10;99.90
53053;DHT22;38934;52.690;6.184;2023-05-19T01:49:19;7.10;99.90
53053;DHT22;38934;52.690;6.184;2023-05-19T01:51:45;7.10;99.90
53053;DHT22;38934;52.690;6.184;2023-05-19T01:54:14;7.10;99.90
53053;DHT22;38934;52.690;6.184;2023-05-19T01:56:51;7.10;99.90
53053;DHT22;38934;52.690;6.184;2023-05-19T02:02:55;7.10;99.90
53053;DHT22;38934;52.690;6.184;2023-05-19T02:08:23;7.10;99.90
53053;DHT22;38934;52.690;6.184;2023-05-19T02:11:13;7.10;99.90
53053;DHT22;38934;52.690;6.184;2023-05-19T02:13:43;7.00;99.90
53053;DHT22;38934;52.690;6.184;2023-05-19T02:16:12;7.00;99.90
53053;DHT22;38934;52.690;6.184;2023-05-19T02:18:39;7.10;99.90
53053;DHT22;38934;52.690;6.184;2023-05-19T02:21:10;7.10;99.90
53053;DHT22;38934;52.690;6.184;2023-05-19T02:23:40;7.10;99.90
53053;DHT22;38934;52.690;6.184;2023-05-19T02:26:06;7.00;99.90
53053;DHT22;38934;52.690;6.184;2023-05-19T02:28:34;7.00;99.90
53053;DHT22;38934;52.690;6.184;2023-05-19T02:31:01;7.00;99.90
53053;DHT22;38934;52.690;6.184;2023-05-19T02:33:27;7.00;99.90
53053;DHT22;38934;52.690;6.184;2023-05-19T02:35:56;7.00;99.90
53053;DHT22;38934;52.690;6.184;2023-05-19T02:38:23;7.40;99.90
53053;DHT22;38934;52.690;6.184;2023-05-19T02:40:50;7.00;99.90
53053;DHT22;38934;52.690;6.184;2023-05-19T02:43:18;7.00;99.90
53053;DHT22;38934;52.690;6.184;2023-05-19T02:45:44;6.90;99.90
53053;DHT22;38934;52.690;6.184;2023-05-19T02:48:10;6.90;99.90
53053;DHT22;38934;52.690;6.184;2023-05-19T02:50:36;6.90;99.90
53053;DHT22;38934;52.690;6.184;2023-05-19T02:53:02;6.90;99.90
53053;DHT22;38934;52.690;6.184;2023-05-19T02:55:28;6.90;99.90
53053;DHT22;38934;52.690;6.184;2023-05-19T02:57:54;6.90;99.90
53053;DHT22;38934;52.690;6.184;2023-05-19T03:00:23;6.90;99.90
53053;DHT22;38934;52.690;6.184;2023-05-19T03:02:51;6.90;99.90
53053;DHT22;38934;52.690;6.184;2023-05-19T03:05:17;6.90;99.90
53053;DHT22;38934;52.690;6.184;2023-05-19T03:07:44;6.90;99.90
53053;DHT22;38934;52.690;6.184;2023-05-19T03:10:11;6.90;99.90
53053;DHT22;38934;52.690;6.184;2023-05-19T03:12:36;6.90;99.90
53053;DHT22;38934;52.690;6.184;2023-05-19T03:15:04;6.90;99.90
53053;DHT22;38934;52.690;6.184;2023-05-19T03:17:29;6.90;99.90
53053;DHT22;38934;52.690;6.184;2023-05-19T03:20:01;6.80;99.90
53053;DHT22;38934;52.690;6.184;2023-05-19T03:22:27;6.80;99.90
53053;DHT22;38934;52.690;6.184;2023-05-19T03:24:54;6.80;99.90
53053;DHT22;38934;52.690;6.184;2023-05-19T03:27:19;6.80;99.90
53053;DHT22;38934;52.690;6.184;2023-05-19T03:29:45;6.80;99.90
53053;DHT22;38934;52.690;6.184;2023-05-19T03:32:12;6.80;99.90
53053;DHT22;38934;52.690;6.184;2023-05-19T03:34:39;6.80;99.90
53053;DHT22;38934;52.690;6.184;2023-05-19T03:37:05;6.80;99.90
53053;DHT22;38934;52.690;6.184;2023-05-19T03:39:31;6.80;99.90
53053;DHT22;38934;52.690;6.184;2023-05-19T03:41:57;7.40;99.90
53053;DHT22;38934;52.690;6.184;2023-05-19T03:44:23;6.80;99.90
53053;DHT22;38934;52.690;6.184;2023-05-19T03:46:49;6.80;99.90
53053;DHT22;38934;52.690;6.184;2023-05-19T03:49:15;6.80;99.90
53053;DHT22;38934;52.690;6.184;2023-05-19T03:51:42;6.80;99.90
53053;DHT22;38934;52.690;6.184;2023-05-19T03:54:08;6.80;99.90
53053;DHT22;38934;52.690;6.184;2023-05-19T03:56:37;6.80;99.90
53053;DHT22;38934;52.690;6.184;2023-05-19T03:59:03;6.80;99.90
53053;DHT22;38934;52.690;6.184;2023-05-19T04:01:31;6.80;99.90
53053;DHT22;38934;52.690;6.184;2023-05-19T04:03:58;7.50;99.90
53053;DHT22;38934;52.690;6.184;2023-05-19T04:06:27;6.90;99.90
53053;DHT22;38934;52.690;6.184;2023-05-19T04:08:52;6.90;99.90
53053;DHT22;38934;52.690;6.184;2023-05-19T04:11:18;6.90;99.90
53053;DHT22;38934;52.690;6.184;2023-05-19T04:13:44;6.90;99.90
53053;DHT22;38934;52.690;6.184;2023-05-19T04:16:13;6.90;99.90
53053;DHT22;38934;52.690;6.184;2023-05-19T04:18:38;7.00;99.90
53053;DHT22;38934;52.690;6.184;2023-05-19T04:21:04;7.00;99.90
53053;DHT22;38934;52.690;6.184;2023-05-19T04:23:31;7.10;99.90
53053;DHT22;38934;52.690;6.184;2023-05-19T04:25:57;7.10;99.90
53053;DHT22;38934;52.690;6.184;2023-05-19T04:28:24;7.10;99.90
53053;DHT22;38934;52.690;6.184;2023-05-19T04:30:50;7.10;99.90
53053;DHT22;38934;52.690;6.184;2023-05-19T04:33:16;7.20;99.90
53053;DHT22;38934;52.690;6.184;2023-05-19T04:35:44;7.20;99.90
53053;DHT22;38934;52.690;6.184;2023-05-19T04:38:10;8.00;99.90
53053;DHT22;38934;52.690;6.184;2023-05-19T04:40:37;7.30;99.90
53053;DHT22;38934;52.690;6.184;2023-05-19T04:43:06;7.30;99.90
53053;DHT22;38934;52.690;6.184;2023-05-19T04:45:33;7.40;99.90
53053;DHT22;38934;52.690;6.184;2023-05-19T04:48:04;7.40;99.90
53053;DHT22;38934;52.690;6.184;2023-05-19T04:50:29;7.50;99.90
53053;DHT22;38934;52.690;6.184;2023-05-19T04:52:56;7.50;99.90
53053;DHT22;38934;52.690;6.184;2023-05-19T04:55:23;7.60;99.90
53053;DHT22;38934;52.690;6.184;2023-05-19T04:57:49;7.70;99.90
53053;DHT22;38934;52.690;6.184;2023-05-19T05:00:15;7.70;99.90
53053;DHT22;38934;52.690;6.184;2023-05-19T05:02:41;7.90;99.90
53053;DHT22;38934;52.690;6.184;2023-05-19T05:05:08;7.90;99.90
53053;DHT22;38934;52.690;6.184;2023-05-19T05:07:34;8.00;99.90
53053;DHT22;38934;52.690;6.184;2023-05-19T05:10:00;8.00;99.90
53053;DHT22;38934;52.690;6.184;2023-05-19T05:12:26;8.00;99.90
53053;DHT22;38934;52.690;6.184;2023-05-19T05:14:52;8.10;99.90
53053;DHT22;38934;52.690;6.184;2023-05-19T05:17:18;8.20;99.90
53053;DHT22;38934;52.690;6.184;2023-05-19T05:19:45;8.30;99.90
53053;DHT22;38934;52.690;6.184;2023-05-19T05:22:10;8.30;99.90
53053;DHT22;38934;52.690;6.184;2023-05-19T05:24:36;8.30;99.90
53053;DHT22;38934;52.690;6.184;2023-05-19T05:27:02;8.30;99.90
53053;DHT22;38934;52.690;6.184;2023-05-19T05:29:29;8.40;99.90
53053;DHT22;38934;52.690;6.184;2023-05-19T05:31:55;8.40;99.90
53053;DHT22;38934;52.690;6.184;2023-05-19T05:34:21;8.40;99.90
53053;DHT22;38934;52.690;6.184;2023-05-19T05:36:46;8.50;99.90
53053;DHT22;38934;52.690;6.184;2023-05-19T05:39:12;8.50;99.90
53053;DHT22;38934;52.690;6.184;2023-05-19T05:41:38;9.20;99.90
53053;DHT22;38934;52.690;6.184;2023-05-19T05:44:04;8.60;99.90
53053;DHT22;38934;52.690;6.184;2023-05-19T05:46:31;8.60;99.90
53053;DHT22;38934;52.690;6.184;2023-05-19T05:48:57;8.70;99.90
53053;DHT22;38934;52.690;6.184;2023-05-19T05:51:22;8.70;99.90
53053;DHT22;38934;52.690;6.184;2023-05-19T05:53:53;8.70;99.90
53053;DHT22;38934;52.690;6.184;2023-05-19T05:56:20;8.80;99.90
53053;DHT22;38934;52.690;6.184;2023-05-19T05:58:46;8.90;99.90
53053;DHT22;38934;52.690;6.184;2023-05-19T06:01:12;9.00;99.90
53053;DHT22;38934;52.690;6.184;2023-05-19T06:03:40;9.10;99.90
53053;DHT22;38934;52.690;6.184;2023-05-19T06:06:06;9.20;99.90
53053;DHT22;38934;52.690;6.184;2023-05-19T06:08:32;9.40;99.90
53053;DHT22;38934;52.690;6.184;2023-05-19T06:10:58;9.50;99.90
53053;DHT22;38934;52.690;6.184;2023-05-19T06:13:24;9.60;99.90
53053;DHT22;38934;52.690;6.184;2023-05-19T06:15:51;9.70;99.90
53053;DHT22;38934;52.690;6.184;2023-05-19T06:18:18;9.90;99.90
53053;DHT22;38934;52.690;6.184;2023-05-19T06:20:45;10.00;99.90
53053;DHT22;38934;52.690;6.184;2023-05-19T06:23:11;10.10;99.90
53053;DHT22;38934;52.690;6.184;2023-05-19T06:25:37;10.20;99.90
53053;DHT22;38934;52.690;6.184;2023-05-19T06:28:03;10.30;99.90
53053;DHT22;38934;52.690;6.184;2023-05-19T06:30:29;10.30;99.90
53053;DHT22;38934;52.690;6.184;2023-05-19T06:32:55;10.50;99.90
53053;DHT22;38934;52.690;6.184;2023-05-19T06:35:21;10.60;99.90
53053;DHT22;38934;52.690;6.184;2023-05-19T06:37:46;10.70;99.90
53053;DHT22;38934;52.690;6.184;2023-05-19T06:40:12;10.80;99.90
53053;DHT22;38934;52.690;6.184;2023-05-19T06:42:37;10.90;99.90
53053;DHT22;38934;52.690;6.184;2023-05-19T06:45:03;11.10;99.90
53053;DHT22;38934;52.690;6.184;2023-05-19T06:47:29;11.20;99.90
53053;DHT22;38934;52.690;6.184;2023-05-19T06:49:55;11.30;99.90
53053;DHT22;38934;52.690;6.184;2023-05-19T06:52:21;11.40;99.90
53053;DHT22;38934;52.690;6.184;2023-05-19T06:54:48;11.50;99.90
53053;DHT22;38934;52.690;6.184;2023-05-19T06:57:14;11.70;99.90
53053;DHT22;38934;52.690;6.184;2023-05-19T06:59:40;11.80;99.90
53053;DHT22;38934;52.690;6.184;2023-05-19T07:02:07;12.00;99.90
53053;DHT22;38934;52.690;6.184;2023-05-19T07:04:33;12.10;99.90
53053;DHT22;38934;52.690;6.184;2023-05-19T07:06:58;12.30;99.90
53053;DHT22;38934;52.690;6.184;2023-05-19T07:09:24;12.40;99.90
53053;DHT22;38934;52.690;6.184;2023-05-19T07:11:50;12.50;99.90
53053;DHT22;38934;52.690;6.184;2023-05-19T07:14:15;13.00;99.90
53053;DHT22;38934;52.690;6.184;2023-05-19T07:16:41;13.00;99.90
53053;DHT22;38934;52.690;6.184;2023-05-19T07:19:07;13.20;99.90
53053;DHT22;38934;52.690;6.184;2023-05-19T07:21:32;13.50;99.90
53053;DHT22;38934;52.690;6.184;2023-05-19T07:23:58;14.20;99.90
53053;DHT22;38934;52.690;6.184;2023-05-19T07:26:23;14.50;99.90
53053;DHT22;38934;52.690;6.184;2023-05-19T07:28:49;15.10;99.90
53053;DHT22;38934;52.690;6.184;2023-05-19T07:31:16;15.90;99.90
53053;DHT22;38934;52.690;6.184;2023-05-19T07:33:42;16.60;99.90
53053;DHT22;38934;52.690;6.184;2023-05-19T07:36:07;17.60;99.90
53053;DHT22;38934;52.690;6.184;2023-05-19T07:38:35;18.40;99.90
53053;DHT22;38934;52.690;6.184;2023-05-19T07:41:01;18.80;99.90
53053;DHT22;38934;52.690;6.184;2023-05-19T07:43:27;19.20;99.90
53053;DHT22;38934;52.690;6.184;2023-05-19T07:45:53;19.70;99.90
53053;DHT22;38934;52.690;6.184;2023-05-19T07:48:21;19.90;99.90
53053;DHT22;38934;52.690;6.184;2023-05-19T07:50:51;20.10;99.90
53053;DHT22;38934;52.690;6.184;2023-05-19T07:53:18;20.60;98.50
53053;DHT22;38934;52.690;6.184;2023-05-19T07:55:43;20.80;97.20
53053;DHT22;38934;52.690;6.184;2023-05-19T07:58:09;20.90;95.10
53053;DHT22;38934;52.690;6.184;2023-05-19T08:00:35;20.80;92.80
53053;DHT22;38934;52.690;6.184;2023-05-19T08:03:01;20.90;91.50
53053;DHT22;38934;52.690;6.184;2023-05-19T08:05:27;20.80;90.70
53053;DHT22;38934;52.690;6.184;2023-05-19T08:07:54;21.00;90.70
53053;DHT22;38934;52.690;6.184;2023-05-19T08:10:21;21.20;88.10
53053;DHT22;38934;52.690;6.184;2023-05-19T08:12:46;21.50;87.40
53053;DHT22;38934;52.690;6.184;2023-05-19T08:15:12;21.90;85.40
53053;DHT22;38934;52.690;6.184;2023-05-19T08:17:38;21.80;80.70
53053;DHT22;38934;52.690;6.184;2023-05-19T08:20:04;21.60;79.40
53053;DHT22;38934;52.690;6.184;2023-05-19T08:22:34;21.50;78.70
53053;DHT22;38934;52.690;6.184;2023-05-19T08:25:00;21.10;78.40
53053;DHT22;38934;52.690;6.184;2023-05-19T08:27:26;20.90;79.00
53053;DHT22;38934;52.690;6.184;2023-05-19T08:29:53;21.20;79.10
53053;DHT22;38934;52.690;6.184;2023-05-19T08:32:19;21.60;78.60
53053;DHT22;38934;52.690;6.184;2023-05-19T08:34:45;21.30;73.80
53053;DHT22;38934;52.690;6.184;2023-05-19T08:37:11;21.10;72.50
53053;DHT22;38934;52.690;6.184;2023-05-19T08:39:37;20.90;73.90
53053;DHT22;38934;52.690;6.184;2023-05-19T08:42:03;20.90;74.40
53053;DHT22;38934;52.690;6.184;2023-05-19T08:44:30;20.70;74.40
53053;DHT22;38934;52.690;6.184;2023-05-19T08:47:00;20.80;75.00
53053;DHT22;38934;52.690;6.184;2023-05-19T08:49:32;20.90;71.70
53053;DHT22;38934;52.690;6.184;2023-05-19T08:55:07;21.20;69.20
53053;DHT22;38934;52.690;6.184;2023-05-19T08:57:35;21.00;70.10
53053;DHT22;38934;52.690;6.184;2023-05-19T09:00:02;21.20;69.60
53053;DHT22;38934;52.690;6.184;2023-05-19T09:02:35;21.70;71.40
53053;DHT22;38934;52.690;6.184;2023-05-19T09:05:02;21.80;66.00
53053;DHT22;38934;52.690;6.184;2023-05-19T09:07:30;21.40;65.10
53053;DHT22;38934;52.690;6.184;2023-05-19T09:09:59;21.20;67.30
53053;DHT22;38934;52.690;6.184;2023-05-19T09:12:25;21.40;68.60
53053;DHT22;38934;52.690;6.184;2023-05-19T09:14:51;21.60;67.90
53053;DHT22;38934;52.690;6.184;2023-05-19T09:17:17;21.80;64.40
53053;DHT22;38934;52.690;6.184;2023-05-19T09:19:46;21.90;64.40
53053;DHT22;38934;52.690;6.184;2023-05-19T09:22:17;22.10;65.50
53053;DHT22;38934;52.690;6.184;2023-05-19T09:24:46;22.40;64.70
53053;DHT22;38934;52.690;6.184;2023-05-19T09:27:20;22.20;63.70
53053;DHT22;38934;52.690;6.184;2023-05-19T09:29:49;21.70;61.80
53053;DHT22;38934;52.690;6.184;2023-05-19T09:32:24;21.00;63.00
53053;DHT22;38934;52.690;6.184;2023-05-19T09:34:52;20.00;61.90
53053;DHT22;38934;52.690;6.184;2023-05-19T09:37:22;19.30;63.90
53053;DHT22;38934;52.690;6.184;2023-05-19T09:39:48;19.60;64.60
53053;DHT22;38934;52.690;6.184;2023-05-19T09:42:23;19.70;63.80
53053;DHT22;38934;52.690;6.184;2023-05-19T09:44:58;19.60;63.90
53053;DHT22;38934;52.690;6.184;2023-05-19T09:47:25;19.60;65.20
53053;DHT22;38934;52.690;6.184;2023-05-19T09:49:53;19.60;64.40
53053;DHT22;38934;52.690;6.184;2023-05-19T09:52:19;20.10;65.70
53053;DHT22;38934;52.690;6.184;2023-05-19T09:54:47;20.50;64.80
53053;DHT22;38934;52.690;6.184;2023-05-19T09:57:13;21.00;65.80
53053;DHT22;38934;52.690;6.184;2023-05-19T09:59:39;21.20;62.70
53053;DHT22;38934;52.690;6.184;2023-05-19T10:02:14;21.40;62.00
53053;DHT22;38934;52.690;6.184;2023-05-19T10:04:41;21.30;61.80
53053;DHT22;38934;52.690;6.184;2023-05-19T10:07:09;21.40;60.90
53053;DHT22;38934;52.690;6.184;2023-05-19T10:09:35;21.30;60.10
53053;DHT22;38934;52.690;6.184;2023-05-19T10:12:02;21.40;62.40
53053;DHT22;38934;52.690;6.184;2023-05-19T10:14:28;21.50;61.60
53053;DHT22;38934;52.690;6.184;2023-05-19T10:16:56;21.50;61.30
53053;DHT22;38934;52.690;6.184;2023-05-19T10:19:24;21.40;61.30
53053;DHT22;38934;52.690;6.184;2023-05-19T10:21:50;21.10;60.50
53053;DHT22;38934;52.690;6.184;2023-05-19T10:24:18;20.90;60.30
53053;DHT22;38934;52.690;6.184;2023-05-19T10:27:04;20.70;59.50
53053;DHT22;38934;52.690;6.184;2023-05-19T10:29:36;20.20;58.70
53053;DHT22;38934;52.690;6.184;2023-05-19T10:32:13;19.90;59.60
53053;DHT22;38934;52.690;6.184;2023-05-19T10:40:16;19.40;60.30
53053;DHT22;38934;52.690;6.184;2023-05-19T10:45:47;19.60;61.60
53053;DHT22;38934;52.690;6.184;2023-05-19T10:48:18;19.70;61.60
53053;DHT22;38934;52.690;6.184;2023-05-19T10:50:45;19.80;62.20
53053;DHT22;38934;52.690;6.184;2023-05-19T10:53:18;19.90;62.60
53053;DHT22;38934;52.690;6.184;2023-05-19T10:55:53;19.80;60.50
53053;DHT22;38934;52.690;6.184;2023-05-19T11:01:14;19.10;60.00
53053;DHT22;38934;52.690;6.184;2023-05-19T11:06:30;18.60;61.90
53053;DHT22;38934;52.690;6.184;2023-05-19T11:09:17;18.60;59.50
53053;DHT22;38934;52.690;6.184;2023-05-19T11:14:10;18.60;61.20
53053;DHT22;38934;52.690;6.184;2023-05-19T11:16:38;18.60;61.60
53053;DHT22;38934;52.690;6.184;2023-05-19T11:19:06;18.70;61.30
53053;DHT22;38934;52.690;6.184;2023-05-19T11:21:48;18.70;60.80
53053;DHT22;38934;52.690;6.184;2023-05-19T11:24:40;18.80;62.50
53053;DHT22;38934;52.690;6.184;2023-05-19T11:27:25;19.00;61.80
53053;DHT22;38934;52.690;6.184;2023-05-19T11:29:52;19.20;62.00
53053;DHT22;38934;52.690;6.184;2023-05-19T11:32:19;19.40;63.10
53053;DHT22;38934;52.690;6.184;2023-05-19T11:34:47;19.60;62.60
53053;DHT22;38934;52.690;6.184;2023-05-19T11:37:13;19.80;61.80
53053;DHT22;38934;52.690;6.184;2023-05-19T11:39:39;19.80;59.50
53053;DHT22;38934;52.690;6.184;2023-05-19T11:42:07;19.70;59.30
53053;DHT22;38934;52.690;6.184;2023-05-19T11:44:33;19.60;60.00
53053;DHT22;38934;52.690;6.184;2023-05-19T11:46:59;19.70;59.20
53053;DHT22;38934;52.690;6.184;2023-05-19T11:49:27;19.60;59.50
53053;DHT22;38934;52.690;6.184;2023-05-19T11:51:53;19.40;59.30
53053;DHT22;38934;52.690;6.184;2023-05-19T11:54:19;19.50;60.40
53053;DHT22;38934;52.690;6.184;2023-05-19T11:56:45;19.70;60.20
53053;DHT22;38934;52.690;6.184;2023-05-19T11:59:11;19.70;59.00
53053;DHT22;38934;52.690;6.184;2023-05-19T12:01:37;19.80;60.10
53053;DHT22;38934;52.690;6.184;2023-05-19T12:04:09;20.00;61.20
53053;DHT22;38934;52.690;6.184;2023-05-19T12:06:35;20.20;61.20
53053;DHT22;38934;52.690;6.184;2023-05-19T12:09:03;20.30;60.70
53053;DHT22;38934;52.690;6.184;2023-05-19T12:11:30;20.40;60.70
53053;DHT22;38934;52.690;6.184;2023-05-19T12:14:00;20.30;58.60
53053;DHT22;38934;52.690;6.184;2023-05-19T12:16:33;20.20;58.90
53053;DHT22;38934;52.690;6.184;2023-05-19T12:19:00;20.10;60.00
53053;DHT22;38934;52.690;6.184;2023-05-19T12:21:26;20.20;60.10
53053;DHT22;38934;52.690;6.184;2023-05-19T12:23:52;20.30;60.30
53053;DHT22;38934;52.690;6.184;2023-05-19T12:26:18;20.40;60.30
53053;DHT22;38934;52.690;6.184;2023-05-19T12:28:48;20.60;61.40
53053;DHT22;38934;52.690;6.184;2023-05-19T12:31:16;20.80;61.40
53053;DHT22;38934;52.690;6.184;2023-05-19T12:33:42;20.80;59.00
53053;DHT22;38934;52.690;6.184;2023-05-19T12:36:08;20.60;58.30
53053;DHT22;38934;52.690;6.184;2023-05-19T12:38:35;20.50;58.20
53053;DHT22;38934;52.690;6.184;2023-05-19T12:41:05;20.60;58.50
53053;DHT22;38934;52.690;6.184;2023-05-19T12:43:31;20.50;57.90
53053;DHT22;38934;52.690;6.184;2023-05-19T12:45:58;20.40;57.70
53053;DHT22;38934;52.690;6.184;2023-05-19T12:48:34;20.40;58.30
53053;DHT22;38934;52.690;6.184;2023-05-19T12:51:00;20.40;57.80
53053;DHT22;38934;52.690;6.184;2023-05-19T12:53:26;20.40;58.20
53053;DHT22;38934;52.690;6.184;2023-05-19T12:55:52;20.30;57.90
53053;DHT22;38934;52.690;6.184;2023-05-19T12:58:18;20.20;58.00
53053;DHT22;38934;52.690;6.184;2023-05-19T13:00:45;20.10;57.60
53053;DHT22;38934;52.690;6.184;2023-05-19T13:03:19;20.00;58.00
53053;DHT22;38934;52.690;6.184;2023-05-19T13:05:47;20.00;57.60
53053;DHT22;38934;52.690;6.184;2023-05-19T13:08:18;20.20;58.80
53053;DHT22;38934;52.690;6.184;2023-05-19T13:10:45;20.00;58.40
53053;DHT22;38934;52.690;6.184;2023-05-19T13:13:11;20.10;59.40
53053;DHT22;38934;52.690;6.184;2023-05-19T13:15:41;20.20;59.60
53053;DHT22;38934;52.690;6.184;2023-05-19T13:18:09;20.30;57.70
53053;DHT22;38934;52.690;6.184;2023-05-19T13:20:36;20.20;58.30
53053;DHT22;38934;52.690;6.184;2023-05-19T13:23:03;20.20;57.80
53053;DHT22;38934;52.690;6.184;2023-05-19T13:25:31;20.30;58.40
53053;DHT22;38934;52.690;6.184;2023-05-19T13:27:57;20.30;58.90
53053;DHT22;38934;52.690;6.184;2023-05-19T13:30:26;20.30;59.10
53053;DHT22;38934;52.690;6.184;2023-05-19T13:32:52;20.30;59.60
53053;DHT22;38934;52.690;6.184;2023-05-19T13:35:17;20.30;59.20
53053;DHT22;38934;52.690;6.184;2023-05-19T13:37:43;20.40;59.20
53053;DHT22;38934;52.690;6.184;2023-05-19T13:40:09;20.20;57.40
53053;DHT22;38934;52.690;6.184;2023-05-19T13:42:36;20.30;57.70
53053;DHT22;38934;52.690;6.184;2023-05-19T13:45:02;20.20;58.40
53053;DHT22;38934;52.690;6.184;2023-05-19T13:47:28;20.30;59.50
53053;DHT22;38934;52.690;6.184;2023-05-19T13:49:54;20.40;59.30
53053;DHT22;38934;52.690;6.184;2023-05-19T13:52:21;20.50;58.90
53053;DHT22;38934;52.690;6.184;2023-05-19T13:54:48;20.40;58.40
53053;DHT22;38934;52.690;6.184;2023-05-19T13:57:15;20.30;58.20
53053;DHT22;38934;52.690;6.184;2023-05-19T13:59:41;20.30;58.80
53053;DHT22;38934;52.690;6.184;2023-05-19T14:02:07;20.20;58.40
53053;DHT22;38934;52.690;6.184;2023-05-19T14:04:36;20.10;58.90
53053;DHT22;38934;52.690;6.184;2023-05-19T14:07:06;20.00;57.90
53053;DHT22;38934;52.690;6.184;2023-05-19T14:09:32;20.00;59.40
53053;DHT22;38934;52.690;6.184;2023-05-19T14:11:58;20.20;59.40
53053;DHT22;38934;52.690;6.184;2023-05-19T14:14:24;20.40;59.00
53053;DHT22;38934;52.690;6.184;2023-05-19T14:16:50;20.60;59.00
53053;DHT22;38934;52.690;6.184;2023-05-19T14:19:16;20.80;58.90
53053;DHT22;38934;52.690;6.184;2023-05-19T14:21:41;20.70;59.20
53053;DHT22;38934;52.690;6.184;2023-05-19T14:24:07;20.60;59.10
53053;DHT22;38934;52.690;6.184;2023-05-19T14:26:33;20.30;58.70
53053;DHT22;38934;52.690;6.184;2023-05-19T14:28:59;20.30;59.00
53053;DHT22;38934;52.690;6.184;2023-05-19T14:31:25;20.30;58.80
53053;DHT22;38934;52.690;6.184;2023-05-19T14:33:51;20.40;58.40
53053;DHT22;38934;52.690;6.184;2023-05-19T14:36:17;20.40;59.10
53053;DHT22;38934;52.690;6.184;2023-05-19T14:38:43;20.60;58.70
53053;DHT22;38934;52.690;6.184;2023-05-19T14:41:09;20.80;58.10
53053;DHT22;38934;52.690;6.184;2023-05-19T14:43:34;20.80;57.30
53053;DHT22;38934;52.690;6.184;2023-05-19T14:46:00;20.90;57.90
53053;DHT22;38934;52.690;6.184;2023-05-19T14:48:26;20.90;57.70
53053;DHT22;38934;52.690;6.184;2023-05-19T14:50:51;20.60;57.30
53053;DHT22;38934;52.690;6.184;2023-05-19T14:53:17;20.30;57.50
53053;DHT22;38934;52.690;6.184;2023-05-19T14:55:43;20.10;58.60
53053;DHT22;38934;52.690;6.184;2023-05-19T14:58:09;20.00;59.60
53053;DHT22;38934;52.690;6.184;2023-05-19T15:00:34;20.00;59.80
53053;DHT22;38934;52.690;6.184;2023-05-19T15:03:00;20.00;59.00
53053;DHT22;38934;52.690;6.184;2023-05-19T15:05:26;20.10;59.40
53053;DHT22;38934;52.690;6.184;2023-05-19T15:07:52;20.20;59.10
53053;DHT22;38934;52.690;6.184;2023-05-19T15:10:18;20.40;58.20
53053;DHT22;38934;52.690;6.184;2023-05-19T15:12:47;20.40;57.90
53053;DHT22;38934;52.690;6.184;2023-05-19T15:15:14;20.40;58.40
53053;DHT22;38934;52.690;6.184;2023-05-19T15:17:41;20.50;59.10
53053;DHT22;38934;52.690;6.184;2023-05-19T15:20:07;20.50;59.50
53053;DHT22;38934;52.690;6.184;2023-05-19T15:22:33;20.30;58.00
53053;DHT22;38934;52.690;6.184;2023-05-19T15:24:58;20.10;58.60
53053;DHT22;38934;52.690;6.184;2023-05-19T15:27:26;19.90;58.80
53053;DHT22;38934;52.690;6.184;2023-05-19T15:29:52;19.80;59.00
53053;DHT22;38934;52.690;6.184;2023-05-19T15:32:17;19.90;59.40
53053;DHT22;38934;52.690;6.184;2023-05-19T15:34:43;20.10;59.30
53053;DHT22;38934;52.690;6.184;2023-05-19T15:37:09;20.30;59.70
53053;DHT22;38934;52.690;6.184;2023-05-19T15:39:35;20.40;59.60
53053;DHT22;38934;52.690;6.184;2023-05-19T15:42:00;20.40;58.30
53053;DHT22;38934;52.690;6.184;2023-05-19T15:44:26;20.20;57.50
53053;DHT22;38934;52.690;6.184;2023-05-19T15:46:52;20.10;58.10
53053;DHT22;38934;52.690;6.184;2023-05-19T15:49:17;20.00;58.40
53053;DHT22;38934;52.690;6.184;2023-05-19T15:51:44;20.10;58.40
53053;DHT22;38934;52.690;6.184;2023-05-19T15:54:10;20.20;58.20
53053;DHT22;38934;52.690;6.184;2023-05-19T15:56:36;20.30;57.30
53053;DHT22;38934;52.690;6.184;2023-05-19T15:59:01;20.30;58.40
53053;DHT22;38934;52.690;6.184;2023-05-19T16:01:27;20.40;59.60
53053;DHT22;38934;52.690;6.184;2023-05-19T16:03:53;20.40;59.40
53053;DHT22;38934;52.690;6.184;2023-05-19T16:06:19;20.50;59.60
53053;DHT22;38934;52.690;6.184;2023-05-19T16:08:45;20.70;59.60
53053;DHT22;38934;52.690;6.184;2023-05-19T16:11:11;20.80;57.40
53053;DHT22;38934;52.690;6.184;2023-05-19T16:13:37;20.80;57.70